createdAt,value
2023-03-25T00:03:44.062Z,11.00
2023-03-25T00:08:48.232Z,11.50
2023-03-25T00:13:52.603Z,12.25
2023-03-25T00:18:57.259Z,9.75
2023-03-25T00:24:01.741Z,12.75
2023-03-25T00:29:06.349Z,12.75
2023-03-25T00:34:12.185Z,17.50
2023-03-25T00:39:16.792Z,10.25
2023-03-25T00:44:23.744Z,14.00
2023-03-25T00:49:30.016Z,14.00
2023-03-25T00:54:35.653Z,17.00
2023-03-25T00:59:40.251Z,15.00
2023-03-25T01:04:46.892Z,15.00
2023-03-25T01:09:52.172Z,12.50
2023-03-25T01:14:56.820Z,14.75
2023-03-25T01:20:01.465Z,19.75
2023-03-25T01:25:06.822Z,21.00
2023-03-25T01:30:12.234Z,18.75
2023-03-25T01:35:18.837Z,18.75
2023-03-25T01:40:27.673Z,15.50
2023-03-25T01:45:34.004Z,17.25
2023-03-25T01:50:41.714Z,17.00
2023-03-25T01:55:47.790Z,21.50
2023-03-25T02:00:53.037Z,18.75
2023-03-25T02:06:04.700Z,19.75
2023-03-25T02:11:09.768Z,18.75
2023-03-25T02:16:17.483Z,19.00
2023-03-25T02:21:40.195Z,21.75
2023-03-25T02:27:05.038Z,18.00
2023-03-25T02:32:40.182Z,17.25
2023-03-25T02:38:02.886Z,18.50
2023-03-25T02:43:13.041Z,16.25
2023-03-25T02:48:25.400Z,17.00
2023-03-25T02:53:35.498Z,18.50
2023-03-25T02:58:41.975Z,15.50
2023-03-25T03:03:48.070Z,16.25
2023-03-25T03:08:52.671Z,20.75
2023-03-25T03:13:57.620Z,19.00
2023-03-25T03:19:28.858Z,18.50
2023-03-25T03:24:43.512Z,18.00
2023-03-25T03:29:50.628Z,15.25
2023-03-25T03:34:57.869Z,17.25
2023-03-25T03:40:03.749Z,17.00
2023-03-25T03:45:34.388Z,15.25
2023-03-25T03:50:42.334Z,17.00
2023-03-25T03:55:52.633Z,13.50
2023-03-25T04:00:58.851Z,13.00
2023-03-25T04:06:09.400Z,12.00
2023-03-25T04:11:19.828Z,9.25
2023-03-25T04:16:27.130Z,10.25
2023-03-25T04:21:31.746Z,9.50
2023-03-25T04:26:39.342Z,10.75
2023-03-25T04:31:47.275Z,8.00
2023-03-25T04:36:52.379Z,6.25
2023-03-25T04:42:04.030Z,7.25
2023-03-25T04:47:09.609Z,6.00
2023-03-25T04:52:14.316Z,4.75
2023-03-25T04:57:19.683Z,5.25
2023-03-25T05:02:26.213Z,6.50
2023-03-25T05:07:34.605Z,4.25
2023-03-25T05:12:39.269Z,4.50
2023-03-25T05:17:45.391Z,4.50
2023-03-25T05:22:50.182Z,4.75
2023-03-25T05:27:55.691Z,5.50
2023-03-25T05:33:01.405Z,4.75
2023-03-25T05:38:07.192Z,4.00
2023-03-25T05:43:13.257Z,3.50
2023-03-25T05:48:18.084Z,4.00
2023-03-25T05:53:22.869Z,4.75
2023-03-25T05:58:28.218Z,4.75
2023-03-25T06:03:35.632Z,4.50
2023-03-25T06:08:40.710Z,4.75
2023-03-25T06:13:51.344Z,3.00
2023-03-25T06:19:00.804Z,5.00
2023-03-25T06:24:10.260Z,4.25
2023-03-25T06:29:15.032Z,4.50
2023-03-25T06:34:20.663Z,2.00
2023-03-25T06:39:27.123Z,3.25
2023-03-25T06:44:33.886Z,4.25
2023-03-25T06:49:56.844Z,6.00
2023-03-25T06:55:01.757Z,3.75
2023-03-25T07:00:08.735Z,4.50
2023-03-25T07:05:13.434Z,5.50
2023-03-25T07:10:18.185Z,4.25
2023-03-25T07:15:22.789Z,4.00
2023-03-25T07:20:27.638Z,3.75
2023-03-25T07:25:32.747Z,4.00
2023-03-25T07:30:37.553Z,4.25
2023-03-25T07:35:42.215Z,5.00
2023-03-25T07:40:49.921Z,3.00
2023-03-25T07:45:55.692Z,3.50
2023-03-25T07:51:01.937Z,9.00
2023-03-25T07:56:07.483Z,30.00
2023-03-25T08:01:12.292Z,35.75
2023-03-25T08:06:17.908Z,37.50
2023-03-25T08:13:17.177Z,128.75
2023-03-25T08:18:21.801Z,179.50
2023-03-25T08:23:27.996Z,225.50
2023-03-25T08:28:32.124Z,262.75
2023-03-25T08:33:42.171Z,223.25
2023-03-25T08:38:46.351Z,198.50
2023-03-25T08:43:51.195Z,170.50
2023-03-25T08:48:55.373Z,180.75
2023-03-25T08:53:59.689Z,178.50
2023-03-25T08:59:03.774Z,174.75
2023-03-25T09:04:08.324Z,176.75
2023-03-25T09:09:13.155Z,247.00
2023-03-25T09:14:17.537Z,224.50
2023-03-25T09:19:22.500Z,206.00
2023-03-25T09:24:26.826Z,208.50
2023-03-25T09:29:31.132Z,207.25
2023-03-25T09:34:35.556Z,200.00
2023-03-25T09:39:39.548Z,189.00
2023-03-25T09:44:52.779Z,170.00
2023-03-25T09:50:00.921Z,177.75
2023-03-25T09:55:10.810Z,271.25
2023-03-25T10:00:19.389Z,368.25
2023-03-25T10:05:42.109Z,413.75
2023-03-25T10:10:47.005Z,590.20
2023-03-25T10:15:58.396Z,562.00
2023-03-25T10:21:03.785Z,567.20
2023-03-25T10:26:14.398Z,579.00
2023-03-25T10:31:20.868Z,608.00
2023-03-25T10:36:46.157Z,593.33
2023-03-25T10:41:59.368Z,518.60
2023-03-25T10:47:08.625Z,543.20
2023-03-25T10:52:13.579Z,607.33
2023-03-25T10:57:24.739Z,589.40
2023-03-25T11:02:31.915Z,576.80
2023-03-25T11:07:43.138Z,571.80
2023-03-25T11:12:49.316Z,581.75
2023-03-25T11:18:06.148Z,596.40
2023-03-25T11:23:19.504Z,479.50
2023-03-25T11:28:28.868Z,505.00
2023-03-25T11:33:34.557Z,527.67
2023-03-25T11:38:42.418Z,586.60
2023-03-25T11:43:50.068Z,594.40
2023-03-25T11:48:54.742Z,607.60
2023-03-25T11:54:05.470Z,585.20
2023-03-25T11:59:24.767Z,593.75
2023-03-25T12:04:29.917Z,523.33
2023-03-25T12:09:35.524Z,560.00
2023-03-25T12:14:53.715Z,549.40
2023-03-25T12:20:03.315Z,541.75
2023-03-25T12:25:08.257Z,511.50
2023-03-25T12:30:28.752Z,514.00
2023-03-25T12:35:41.996Z,486.00
2023-03-25T12:40:55.675Z,489.80
2023-03-25T12:46:15.825Z,475.00
2023-03-25T12:51:19.992Z,460.75
2023-03-25T12:56:56.405Z,460.25
2023-03-25T13:02:10.122Z,444.25
2023-03-25T13:07:34.692Z,410.00
2023-03-25T13:12:50.880Z,421.50
2023-03-25T13:18:01.348Z,401.00
2023-03-25T13:23:07.504Z,398.25
2023-03-25T13:28:15.210Z,393.00
2023-03-25T13:33:26.433Z,379.25
2023-03-25T13:38:31.282Z,371.00
2023-03-25T13:43:42.722Z,365.25
2023-03-25T13:54:29.885Z,353.25
2023-03-25T13:59:40.297Z,350.25
2023-03-25T14:04:46.069Z,335.25
2023-03-25T14:09:57.079Z,324.00
2023-03-25T14:15:17.711Z,330.25
2023-03-25T14:20:26.527Z,313.50
2023-03-25T14:25:35.832Z,311.00
2023-03-25T14:30:41.467Z,304.00
2023-03-25T14:35:48.520Z,297.00
2023-03-25T14:41:03.422Z,288.25
2023-03-25T14:46:16.661Z,291.75
2023-03-25T14:51:31.399Z,273.75
2023-03-25T14:56:38.110Z,273.75
2023-03-25T15:01:44.255Z,261.25
2023-03-25T15:06:50.507Z,253.00
2023-03-25T15:12:06.902Z,244.75
2023-03-25T15:17:34.427Z,246.00
2023-03-25T15:22:39.942Z,238.25
2023-03-25T15:27:50.744Z,237.25
2023-03-25T15:33:21.836Z,237.25
2023-03-25T15:38:51.865Z,226.25
2023-03-25T15:44:11.989Z,221.75
2023-03-25T15:49:22.728Z,214.00
2023-03-25T15:54:33.745Z,207.00
2023-03-25T16:00:13.774Z,210.25
2023-03-25T16:05:19.138Z,201.50
2023-03-25T16:10:34.201Z,196.50
2023-03-25T16:15:39.589Z,199.25
2023-03-25T16:20:45.157Z,193.25
2023-03-25T16:25:50.629Z,188.00
2023-03-25T16:30:56.365Z,181.00
2023-03-25T16:36:03.230Z,183.00
2023-03-25T16:41:14.891Z,179.00
2023-03-25T16:46:21.619Z,175.25
2023-03-25T16:51:31.084Z,173.00
2023-03-25T16:56:38.839Z,166.75
2023-03-25T17:01:46.166Z,160.00
2023-03-25T17:06:55.915Z,167.50
2023-03-25T17:12:00.263Z,158.00
2023-03-25T17:17:22.882Z,187.25
2023-03-25T17:22:34.583Z,175.75
2023-03-25T17:27:41.022Z,169.50
2023-03-25T17:32:47.005Z,169.75
2023-03-25T17:37:54.260Z,168.00
2023-03-25T17:42:59.026Z,156.75
2023-03-25T17:48:03.219Z,153.00
2023-03-25T17:53:07.318Z,147.75
2023-03-25T17:58:11.510Z,143.75
2023-03-25T18:03:26.763Z,141.33
2023-03-25T18:08:31.106Z,133.00
2023-03-25T18:13:35.338Z,139.67
2023-03-25T18:18:39.471Z,135.33
2023-03-25T18:23:45.840Z,129.00
2023-03-25T18:28:50.299Z,130.33
2023-03-25T18:33:55.370Z,120.00
2023-03-25T18:38:59.517Z,131.33
2023-03-25T18:44:03.633Z,120.00
2023-03-25T18:49:13.090Z,116.00
2023-03-25T18:54:17.786Z,117.00
2023-03-25T18:59:23.298Z,112.33
2023-03-25T19:04:28.388Z,109.00
2023-03-25T19:09:33.400Z,104.67
2023-03-25T19:14:37.530Z,103.00
2023-03-25T19:19:42.603Z,104.67
2023-03-25T19:24:48.054Z,99.00
2023-03-25T19:29:52.269Z,93.33
2023-03-25T19:34:57.819Z,93.00
2023-03-25T19:40:01.910Z,97.67
2023-03-25T19:45:06.518Z,85.25
2023-03-25T19:50:10.653Z,85.25
2023-03-25T19:55:15.144Z,87.25
2023-03-25T20:00:21.475Z,88.50
2023-03-25T20:05:26.470Z,82.25
2023-03-25T20:10:31.682Z,76.50
2023-03-25T20:15:35.745Z,80.50
2023-03-25T20:20:41.667Z,73.75
2023-03-25T20:25:46.034Z,73.25
2023-03-25T20:30:50.178Z,72.50
2023-03-25T20:35:54.684Z,73.75
2023-03-25T20:41:00.024Z,70.50
2023-03-25T20:46:05.407Z,70.50
2023-03-25T20:51:11.521Z,69.00
2023-03-25T20:56:15.844Z,67.00
2023-03-25T21:01:22.504Z,70.25
2023-03-25T21:06:28.467Z,114.33
2023-03-25T21:11:33.379Z,123.00
2023-03-25T21:16:37.485Z,115.00
2023-03-25T21:21:42.153Z,107.67
2023-03-25T21:26:46.218Z,107.67
2023-03-25T21:31:50.295Z,97.00
2023-03-25T21:36:54.587Z,134.67
2023-03-25T21:41:58.827Z,208.00
2023-03-25T21:47:15.786Z,239.25
2023-03-25T21:52:19.841Z,271.25
2023-03-25T21:57:24.195Z,286.25
2023-03-25T22:02:30.043Z,279.75
2023-03-25T22:07:34.270Z,283.75
2023-03-25T22:12:38.312Z,297.25
2023-03-25T22:17:42.677Z,304.25
2023-03-25T22:22:47.158Z,305.00
2023-03-25T22:27:51.673Z,302.50
2023-03-25T22:32:56.034Z,306.75
2023-03-25T22:38:00.284Z,306.75
2023-03-25T22:43:05.282Z,324.50
2023-03-25T22:48:09.562Z,318.00
2023-03-25T22:53:13.762Z,306.50
2023-03-25T22:58:17.861Z,303.25
2023-03-25T23:03:22.867Z,320.00
2023-03-25T23:08:31.100Z,317.75
2023-03-25T23:13:36.765Z,324.50
2023-03-25T23:18:43.076Z,307.25
2023-03-25T23:23:53.106Z,314.25
2023-03-25T23:29:01.624Z,307.00
2023-03-25T23:34:08.078Z,327.75
2023-03-25T23:39:13.302Z,317.75
2023-03-25T23:44:18.242Z,326.75
2023-03-25T23:49:22.484Z,331.50
2023-03-25T23:54:27.955Z,336.25
2023-03-25T23:59:32.174Z,348.50
